Latest Weather Observations for Dubbo

IDN60801

Issued at 6:23 pm EST Saturday 9 May 2026 (issued every 10 minutes, with the page automatically refreshed every 10 minutes)

About weather observations | Map of weather stations | Latest weather observations for NSW | Other Formats
Station Details ID: 065070 Name: DUBBO AIRPORT AWS Lat: -32.22 Lon: 148.58 Height: 284.0 m
Data from the previous 72 hours. | See also: Recent months at Dubbo
Date/Time
EST
Temp
°C
App
Temp
°C
Dew
Point
°C
Rel
Hum
%
Delta-T
°C
Wind Press
QNH
hPa
Press
MSL
hPa
Rain since
9am
mm
Dir  Spd
km/h
Gust
km/h
Spd
kts
Gust
kts
09/06:00pm 14.5 11.6 6.3 58 4.0 SW 11 13 6 7 1024.7 1024.6 0.0
09/05:30pm 15.5 12.5 6.0 53 4.6 WSW 11 13 6 7 1024.3 1024.2 0.0
09/05:00pm 18.5 14.9 6.7 46 5.9 WSW 15 20 8 11 1024.0 1023.8 0.0
09/04:30pm 19.7 15.7 6.8 43 6.6 WSW 17 22 9 12 1023.7 1023.5 0.0
09/04:00pm 20.5 16.5 6.8 41 7.0 W 17 22 9 12 1023.6 1023.4 0.0
09/03:30pm 21.1 18.7 7.0 40 7.3 WSW 9 17 5 9 1023.5 1023.3 0.0
09/03:00pm 21.3 18.8 6.4 38 7.6 W 9 15 5 8 1023.6 1023.4 0.0
09/02:30pm 20.7 18.4 5.9 38 7.5 W 7 17 4 9 1023.6 1023.4 0.0
09/02:00pm 20.6 18.1 6.5 40 7.2 SSW 9 17 5 9 1023.7 1023.5 0.0
09/01:30pm 20.3 18.1 6.3 40 7.1 N 7 15 4 8 1023.8 1023.6 0.0
09/01:00pm 19.4 17.1 5.8 41 6.8 NNW 7 13 4 7 1024.2 1024.1 0.0
09/12:30pm 18.7 16.0 5.5 42 6.5 SW 9 15 5 8 1024.7 1024.6 0.0
09/12:00pm 18.8 17.0 7.3 47 5.9 SSE 6 9 3 5 1025.1 1025.0 0.0
09/11:30am 17.5 15.0 6.7 49 5.4 S 9 15 5 8 1025.5 1025.4 0.0
09/11:00am 16.6 13.8 7.0 53 4.8 SSE 11 17 6 9 1025.8 1025.7 0.0
09/10:30am 16.2 13.5 7.2 55 4.5 SE 11 17 6 9 1026.2 1026.1 0.0
09/10:00am 14.9 12.4 8.2 64 3.4 SE 11 15 6 8 1026.4 1026.3 0.0
09/09:30am 13.3 10.8 8.0 70 2.7 SSE 11 15 6 8 1026.4 1026.3 0.0
09/09:00am 11.6 9.4 7.9 78 1.8 SSE 9 11 5 6 1026.5 1026.4 0.0
09/08:30am 10.2 8.1 8.3 88 0.9 SE 9 9 5 5 1026.4 1026.3 0.0
09/08:00am 8.4 5.9 8.4 100 0.0 SE 11 13 6 7 1026.1 1026.0 0.0
09/07:30am 6.6 4.5 6.6 100 0.0 SSE 7 11 4 6 1025.7 1025.6 0.0
09/07:00am 5.2 2.8 5.2 100 0.0 SSE 7 9 4 5 1025.4 1025.3 0.0
09/06:30am 4.0 1.0 4.0 100 0.0 SE 9 11 5 6 1025.1 1025.0 0.0
09/06:10am 3.9 1.4 3.9 100 0.0 SSE 6 7 3 4 1024.8 1024.7 0.0
09/06:00am 5.0 3.5 5.0 100 0.0 SSE 2 6 1 3 1024.7 1024.6 0.0
09/05:51am 4.8 2.5 4.8 100 0.0 SSE 6 7 3 4 1024.7 1024.6 0.0
09/05:30am 5.4 3.2 5.4 100 0.0 SE 6 7 3 4 1024.4 1024.3 0.0
09/05:00am 5.4 4.0 5.4 100 0.0 SE 2 7 1 4 1024.2 1024.1 0.0
09/04:30am 4.8 1.9 4.8 100 0.0 SE 9 11 5 6 1024.3 1024.2 0.0
09/04:00am 5.8 3.4 5.1 95 0.3 S 7 11 4 6 1024.3 1024.2 0.0
09/03:30am 7.3 4.6 7.3 100 0.0 SSW 11 13 6 7 1024.2 1024.1 0.0
09/03:00am 5.9 4.6 5.9 100 0.0 SW 2 9 1 5 1024.4 1024.3 0.0
09/02:30am 6.1 4.1 6.1 100 0.0 SW 6 7 3 4 1024.5 1024.4 0.0
09/02:00am 5.6 4.6 5.6 100 0.0 CALM 0 0 0 0 1024.6 1024.5 0.0
09/01:30am 7.5 5.8 7.5 100 0.0 SE 6 7 3 4 1024.6 1024.5 0.0
09/01:00am 7.4 4.7 7.4 100 0.0 E 11 15 6 8 1024.7 1024.6 0.0
09/12:30am 7.7 5.5 7.7 100 0.0 SSE 9 11 5 6 1024.5 1024.4 0.0
09/12:00am 8.5 6.0 8.4 99 0.0 SW 11 13 6 7 1024.5 1024.4 0.0
 
Date/Time
EST
Temp
°C
App
Temp
°C
Dew
Point
°C
Rel
Hum
%
Delta-T
°C
Wind Press
QNH
hPa
Press
MSL
hPa
Rain since
9am
mm
Dir  Spd
km/h
Gust
km/h
Spd
kts
Gust
kts
08/11:30pm 9.5 6.3 8.3 92 0.6 SW 15 17 8 9 1024.5 1024.4 0.0
08/11:00pm 8.7 5.6 7.3 91 0.7 SW 13 15 7 8 1024.8 1024.7 0.0
08/10:30pm 9.1 6.6 6.7 85 1.1 SW 9 11 5 6 1025.0 1024.9 0.0
08/10:00pm 9.8 6.9 6.5 80 1.6 SW 11 13 6 7 1025.0 1024.9 0.0
08/09:30pm 11.4 8.3 7.1 75 2.1 WSW 13 15 7 8 1024.9 1024.8 0.0
08/09:00pm 11.6 8.5 7.3 75 2.1 SW 13 15 7 8 1024.7 1024.6 0.0
08/08:30pm 11.6 9.3 7.5 76 2.0 SW 9 11 5 6 1024.7 1024.6 0.0
08/08:00pm 10.2 8.2 6.9 80 1.6 SSW 7 11 4 6 1024.5 1024.4 0.0
08/07:30pm 10.8 8.3 6.7 76 2.0 WSW 9 11 5 6 1024.0 1023.8 0.0
08/07:00pm 12.1 9.2 6.4 68 2.7 SW 11 13 6 7 1024.1 1023.9 0.0
08/06:30pm 13.8 11.4 7.1 64 3.3 SSW 9 13 5 7 1024.1 1023.9 0.0
08/06:00pm 13.6 10.8 6.9 64 3.3 SW 11 15 6 8 1023.8 1023.6 0.0
08/05:30pm 13.8 10.6 6.7 62 3.5 SW 13 20 7 11 1023.4 1023.2 0.0
08/05:00pm 14.0 10.7 6.4 60 3.7 SW 13 19 7 10 1023.2 1023.1 0.0
08/04:30pm 14.3 10.6 6.4 59 3.9 SW 15 20 8 11 1023.1 1023.0 0.0
08/04:00pm 14.7 10.1 6.3 57 4.1 SW 20 28 11 15 1023.1 1023.0 0.0
08/03:30pm 14.7 9.7 6.3 57 4.1 SSW 22 30 12 16 1023.1 1023.0 0.0
08/03:00pm 15.4 10.3 6.2 54 4.5 SSW 22 32 12 17 1022.9 1022.8 0.0
08/02:30pm 16.1 11.4 6.0 51 5.0 SSW 20 33 11 18 1022.9 1022.8 0.0
08/02:00pm 15.4 9.8 5.6 52 4.7 SW 24 35 13 19 1022.9 1022.8 0.0
08/01:30pm 15.3 10.4 6.8 57 4.2 SW 22 32 12 17 1023.1 1023.0 0.0
08/01:00pm 15.7 10.2 5.9 52 4.8 SW 24 33 13 18 1023.2 1023.1 0.0
08/12:30pm 15.9 11.2 6.1 52 4.8 SSW 20 28 11 15 1023.9 1023.7 0.0
08/12:00pm 14.6 8.2 5.1 53 4.5 SSW 28 37 15 20 1024.4 1024.3 0.0
08/11:30am 15.4 9.8 5.3 51 4.9 SW 24 35 13 19 1024.6 1024.5 0.0
08/11:00am 14.3 8.4 4.0 50 4.8 SSW 24 32 13 17 1024.8 1024.7 0.0
08/10:30am 13.9 7.8 4.8 54 4.3 SSW 26 37 14 20 1025.2 1025.1 0.0
08/10:00am 12.9 7.9 4.6 57 3.8 SSW 20 33 11 18 1025.4 1025.3 0.0
08/09:30am 11.4 6.3 3.9 60 3.4 SSW 20 32 11 17 1025.2 1025.1 0.0
08/09:00am 10.2 6.4 3.9 65 2.8 SW 13 20 7 11 1025.0 1024.9 0.0
08/08:30am 7.9 5.2 3.6 74 1.9 W 7 11 4 6 1025.0 1024.9 0.0
08/08:00am 5.5 2.8 2.5 81 1.2 W 6 7 3 4 1025.0 1024.9 0.0
08/07:30am 4.2 0.9 2.7 90 0.6 NW 9 11 5 6 1024.9 1024.8 0.0
08/07:00am 1.8 -0.3 1.8 100 0.0 NW 2 7 1 4 1024.8 1024.7 0.0
08/06:30am 1.9 0.2 1.9 100 0.0 CALM 0 0 0 0 1024.8 1024.7 0.0
08/06:00am 2.4 -0.5 1.5 94 0.3 W 6 6 3 3 1024.6 1024.5 0.0
08/05:30am 2.0 -1.9 1.1 94 0.3 W 11 11 6 6 1024.4 1024.3 0.0
08/05:00am 2.4 -1.1 1.2 92 0.5 W 9 11 5 6 1024.3 1024.2 0.0
08/04:30am 4.1 -0.2 1.1 81 1.2 WNW 13 15 7 8 1024.1 1023.9 0.0
08/04:00am 2.9 -0.7 0.6 85 0.9 WNW 9 11 5 6 1024.2 1024.1 0.0
08/03:30am 2.6 -0.6 -0.3 81 1.1 W 6 9 3 5 1024.3 1024.2 0.0
08/03:00am 3.1 -0.2 0.3 82 1.1 W 7 9 4 5 1024.4 1024.3 0.0
08/02:30am 3.9 0.7 0.6 79 1.3 W 7 9 4 5 1024.5 1024.4 0.0
08/02:00am 2.9 -0.2 0.0 81 1.1 W 6 9 3 5 1024.7 1024.6 0.0
08/01:30am 3.6 -0.5 0.0 77 1.4 WSW 11 13 6 7 1024.7 1024.6 0.0
08/01:00am 4.2 -0.2 0.4 76 1.5 SW 13 15 7 8 1024.6 1024.5 0.0
08/12:30am 3.5 -0.6 -0.1 77 1.4 W 11 13 6 7 1024.7 1024.6 0.0
08/12:00am 3.9 0.7 -0.3 74 1.6 W 6 9 3 5 1024.8 1024.7 0.0
 
Date/Time
EST
Temp
°C
App
Temp
°C
Dew
Point
°C
Rel
Hum
%
Delta-T
°C
Wind Press
QNH
hPa
Press
MSL
hPa
Rain since
9am
mm
Dir  Spd
km/h
Gust
km/h
Spd
kts
Gust
kts
07/11:30pm 3.6 0.4 -0.4 75 1.5 WNW 6 9 3 5 1024.9 1024.8 0.0
07/11:00pm 4.2 0.1 -0.4 72 1.7 SW 11 13 6 7 1024.8 1024.7 0.0
07/10:30pm 4.4 0.2 -1.0 68 2.0 WSW 11 13 6 7 1024.8 1024.7 0.0
07/10:00pm 4.9 0.3 -0.9 66 2.2 WSW 13 15 7 8 1024.9 1024.8 0.0
07/09:30pm 5.9 2.4 -1.0 61 2.6 SW 7 9 4 5 1025.0 1024.9 0.0
07/09:00pm 6.0 1.4 -1.2 60 2.7 SW 13 15 7 8 1024.7 1024.6 0.0
07/08:30pm 6.9 1.9 -1.0 57 3.1 SW 15 17 8 9 1024.4 1024.3 0.0
07/08:00pm 7.6 3.0 -1.4 53 3.4 SW 13 17 7 9 1024.3 1024.2 0.0
07/07:30pm 6.9 2.2 -1.7 54 3.3 SW 13 17 7 9 1024.0 1023.8 0.0
07/07:00pm 8.2 3.1 -1.6 50 3.8 SW 15 19 8 10 1023.8 1023.6 0.0
07/06:30pm 9.0 4.7 -1.7 47 4.2 SSW 11 17 6 9 1023.5 1023.3 0.0
07/06:00pm 9.3 4.2 -2.0 45 4.4 SW 15 24 8 13 1022.8 1022.7 0.0
07/05:30pm 10.1 4.2 -2.2 42 4.8 SW 19 24 10 13 1022.6 1022.5 0.0
07/05:00pm 11.3 4.1 -2.1 39 5.3 SW 26 39 14 21 1022.2 1022.1 0.0
07/04:30pm 12.2 3.6 -2.4 36 5.8 SW 33 44 18 24 1022.0 1021.9 0.0
07/04:00pm 13.1 6.3 -1.6 36 6.0 SSW 24 33 13 18 1021.8 1021.7 0.0
07/03:30pm 13.1 6.0 -1.6 36 6.0 SSW 26 39 14 21 1021.8 1021.7 0.0
07/03:00pm 13.1 5.2 -1.6 36 6.0 SSW 30 46 16 25 1021.9 1021.8 0.0
07/02:34pm 13.4 5.0 -2.1 34 6.3 SW 32 50 17 27 1021.6 1021.5 0.0
07/02:30pm 13.6 5.7 -1.6 35 6.2 SW 30 43 16 23 1021.6 1021.5 0.0
07/02:00pm 13.4 4.9 -2.1 34 6.2 SW 33 54 18 29 1021.5 1021.4 0.0
07/01:57pm 13.7 5.4 -1.9 34 6.3 SW 32 54 17 29 1021.5 1021.4 0.0
07/01:30pm 13.4 5.1 -1.7 35 6.1 SW 32 44 17 24 1021.6 1021.5 0.0
07/01:00pm 13.9 5.7 -0.9 36 6.1 SW 32 46 17 25 1021.5 1021.4 0.0
07/12:47pm 13.4 4.9 -2.1 34 6.3 SW 33 52 18 28 1021.5 1021.4 0.0
07/12:30pm 13.8 6.0 -1.0 36 6.1 SW 30 44 16 24 1021.4 1021.3 0.0
07/12:07pm 12.9 4.4 -1.8 36 5.9 SSW 33 52 18 28 1021.6 1021.5 0.0
07/12:00pm 13.2 4.8 -1.2 37 5.9 SW 33 46 18 25 1021.5 1021.4 0.0
07/11:30am 12.5 4.2 -0.4 41 5.4 SSW 33 48 18 26 1021.8 1021.7 0.0
07/11:00am 12.8 4.5 -0.1 41 5.4 SW 33 50 18 27 1021.6 1021.5 0.0
07/10:30am 12.7 4.8 1.1 45 5.0 SW 32 46 17 25 1021.6 1021.5 0.0
07/10:00am 10.4 3.5 4.8 68 2.6 SW 30 43 16 23 1021.4 1021.3 0.0
07/09:30am 10.8 5.4 8.2 84 1.3 WSW 26 43 14 23 1020.9 1020.7 0.0
07/09:00am 10.3 6.5 9.7 96 0.3 W 20 26 11 14 1020.7 1020.5 0.0
07/08:59am 10.2 6.3 9.4 95 0.4 W 20 26 11 14 1020.7 1020.5 0.0
07/08:30am 9.8 6.9 9.8 100 0.0 W 15 19 8 10 1020.4 1020.2 0.0
07/08:06am 9.0 5.9 9.0 100 0.0 W 15 19 8 10 1020.1 1019.9 0.0
07/08:00am 9.0 5.9 9.0 100 0.0 W 15 20 8 11 1020.1 1019.9 0.0
07/07:30am 8.1 4.8 8.1 100 0.0 W 15 19 8 10 1019.9 1019.7 0.0
07/07:00am 7.1 4.3 7.1 100 0.0 WNW 11 13 6 7 1019.7 1019.5 0.0
07/06:30am 6.3 3.7 6.3 100 0.0 WNW 9 11 5 6 1019.1 1019.0 0.0
07/06:00am 5.8 3.5 5.8 100 0.0 W 7 9 4 5 1018.9 1018.8 0.0
07/05:30am 5.1 2.3 5.1 100 0.0 W 9 9 5 5 1018.8 1018.7 0.0
07/05:00am 5.4 2.7 5.4 100 0.0 W 9 11 5 6 1018.7 1018.6 0.0
07/04:30am 6.5 3.6 6.5 100 0.0 WSW 11 13 6 7 1018.7 1018.6 0.0
07/04:00am 6.9 3.3 6.9 100 0.0 WSW 15 17 8 9 1018.6 1018.5 0.0
07/03:30am 6.8 4.0 6.8 100 0.0 SW 11 13 6 7 1018.6 1018.5 0.0
07/03:00am 7.7 5.5 7.7 100 0.0 SW 9 11 5 6 1018.6 1018.5 0.0
07/02:30am 7.4 4.7 7.4 100 0.0 SW 11 13 6 7 1018.9 1018.8 0.0
07/02:00am 8.9 5.8 7.4 90 0.7 SW 13 19 7 10 1019.1 1019.0 0.0
07/01:30am 9.5 6.5 7.6 88 0.9 SW 13 20 7 11 1019.3 1019.2 0.0
07/01:00am 9.9 6.2 7.8 87 1.0 SW 17 22 9 12 1019.4 1019.3 0.0
07/12:30am 9.5 6.4 8.7 95 0.4 SW 15 19 8 10 1019.5 1019.4 0.0
07/12:00am 8.8 5.7 8.8 100 0.0 SW 15 19 8 10 1019.4 1019.3 0.0
 
Date/Time
EST
Temp
°C
App
Temp
°C
Dew
Point
°C
Rel
Hum
%
Delta-T
°C
Wind Press
QNH
hPa
Press
MSL
hPa
Rain since
9am
mm
Dir  Spd
km/h
Gust
km/h
Spd
kts
Gust
kts
06/11:30pm 8.3 5.8 8.3 100 0.0 SW 11 13 6 7 1019.3 1019.2 0.0
06/11:00pm 8.2 5.7 8.2 100 0.0 WSW 11 13 6 7 1019.3 1019.2 0.0
06/10:30pm 8.6 6.2 7.1 90 0.7 WNW 9 13 5 7 1019.7 1019.5 0.0
06/10:00pm 10.4 8.4 7.3 81 1.5 WSW 7 11 4 6 1019.7 1019.5 0.0
06/09:30pm 10.9 8.5 7.2 78 1.8 SSW 9 11 5 6 1019.7 1019.5 0.0
06/09:00pm 11.2 9.3 7.5 78 1.8 S 7 7 4 4 1019.5 1019.4 0.0
06/08:30pm 11.8 9.9 7.5 75 2.1 S 7 9 4 5 1019.4 1019.3 0.0
06/08:00pm 11.6 11.0 7.5 76 2.0 CALM 0 6 0 3 1019.3 1019.2 0.0
06/07:30pm 12.7 10.0 7.4 70 2.6 SW 11 13 6 7 1019.1 1019.0 0.0
06/07:00pm 13.5 10.5 7.7 68 2.9 SW 13 17 7 9 1018.8 1018.7 0.0
06/06:30pm 13.7 10.4 8.1 69 2.8 SW 15 17 8 9 1018.6 1018.5 0.0

Other formats

Comma delimited format used in spreadsheet applications
http://www.bom.gov.au/fwo/IDN60801/IDN60801.95719.axf

JavaScript Object Notation format (JSON) in row-major order
http://www.bom.gov.au/fwo/IDN60801/IDN60801.95719.json

Data quality

Most of these data are generated automatically and are frequently updated. Quality checks on data are not normally performed. It is possible for incorrect values to appear. Refer to information at About Latest Weather Observations and please check the disclaimer before using these data.